sensor_id;sensor_type;location;lat;lon;timestamp;pressure;altitude;pressure_sealevel;temperature;humidity
19596;BME280;9945;46.010;8.946;2023-04-15T00:01:40;96065.47;;;13.51;27.27
19596;BME280;9945;46.010;8.946;2023-04-15T00:04:07;96059.16;;;13.46;28.44
19596;BME280;9945;46.010;8.946;2023-04-15T00:06:36;96055.69;;;13.45;26.93
19596;BME280;9945;46.010;8.946;2023-04-15T00:09:05;96050.66;;;13.44;26.55
19596;BME280;9945;46.010;8.946;2023-04-15T00:11:32;96049.84;;;13.43;27.46
19596;BME280;9945;46.010;8.946;2023-04-15T00:13:59;96041.97;;;13.43;28.54
19596;BME280;9945;46.010;8.946;2023-04-15T00:16:26;96038.72;;;13.41;28.87
19596;BME280;9945;46.010;8.946;2023-04-15T00:18:52;96042.13;;;13.35;28.11
19596;BME280;9945;46.010;8.946;2023-04-15T00:21:19;96037.50;;;13.44;27.99
19596;BME280;9945;46.010;8.946;2023-04-15T00:23:46;96037.28;;;13.45;26.09
19596;BME280;9945;46.010;8.946;2023-04-15T00:26:18;96036.69;;;13.43;28.22
19596;BME280;9945;46.010;8.946;2023-04-15T00:28:45;96035.66;;;13.44;28.15
19596;BME280;9945;46.010;8.946;2023-04-15T00:31:12;96036.44;;;13.32;26.83
19596;BME280;9945;46.010;8.946;2023-04-15T00:33:39;96036.78;;;13.22;26.61
19596;BME280;9945;46.010;8.946;2023-04-15T00:36:06;96033.13;;;13.16;27.63
19596;BME280;9945;46.010;8.946;2023-04-15T00:38:35;96029.50;;;13.24;28.92
19596;BME280;9945;46.010;8.946;2023-04-15T00:41:02;96022.63;;;13.23;28.27
19596;BME280;9945;46.010;8.946;2023-04-15T00:43:31;96020.19;;;13.21;29.51
19596;BME280;9945;46.010;8.946;2023-04-15T00:45:58;96022.81;;;13.21;27.47
19596;BME280;9945;46.010;8.946;2023-04-15T00:48:27;96024.41;;;13.16;27.51
19596;BME280;9945;46.010;8.946;2023-04-15T00:50:54;96018.16;;;13.17;27.58
19596;BME280;9945;46.010;8.946;2023-04-15T00:53:21;96020.38;;;13.20;28.38
19596;BME280;9945;46.010;8.946;2023-04-15T00:55:48;96018.75;;;13.19;27.27
19596;BME280;9945;46.010;8.946;2023-04-15T00:58:15;96017.19;;;13.24;26.57
19596;BME280;9945;46.010;8.946;2023-04-15T01:00:44;96009.50;;;13.23;25.70
19596;BME280;9945;46.010;8.946;2023-04-15T01:03:12;96023.84;;;13.27;26.29
19596;BME280;9945;46.010;8.946;2023-04-15T01:05:39;96013.97;;;13.29;26.74
19596;BME280;9945;46.010;8.946;2023-04-15T01:08:06;96010.94;;;13.32;27.49
19596;BME280;9945;46.010;8.946;2023-04-15T01:10:34;96017.41;;;13.30;28.12
19596;BME280;9945;46.010;8.946;2023-04-15T01:13:01;96010.13;;;13.25;28.02
19596;BME280;9945;46.010;8.946;2023-04-15T01:15:28;96009.31;;;13.24;27.74
19596;BME280;9945;46.010;8.946;2023-04-15T01:17:58;96010.06;;;13.18;29.73
19596;BME280;9945;46.010;8.946;2023-04-15T01:20:25;96015.66;;;13.09;29.47
19596;BME280;9945;46.010;8.946;2023-04-15T01:22:53;96011.28;;;13.16;30.94
19596;BME280;9945;46.010;8.946;2023-04-15T01:25:29;96012.38;;;13.00;30.03
19596;BME280;9945;46.010;8.946;2023-04-15T01:27:57;96012.75;;;12.97;30.98
19596;BME280;9945;46.010;8.946;2023-04-15T01:30:24;96022.22;;;12.92;31.97
19596;BME280;9945;46.010;8.946;2023-04-15T01:32:52;96017.97;;;12.91;30.58
19596;BME280;9945;46.010;8.946;2023-04-15T01:35:19;96013.66;;;12.83;32.65
19596;BME280;9945;46.010;8.946;2023-04-15T01:37:47;96004.94;;;12.76;33.46
19596;BME280;9945;46.010;8.946;2023-04-15T01:40:15;96015.84;;;12.79;32.28
19596;BME280;9945;46.010;8.946;2023-04-15T01:42:44;96007.16;;;12.79;34.26
19596;BME280;9945;46.010;8.946;2023-04-15T01:45:11;96015.03;;;12.79;32.74
19596;BME280;9945;46.010;8.946;2023-04-15T01:47:38;96015.47;;;12.82;34.37
19596;BME280;9945;46.010;8.946;2023-04-15T01:50:06;96006.75;;;12.75;33.04
19596;BME280;9945;46.010;8.946;2023-04-15T01:52:34;96007.50;;;12.69;30.82
19596;BME280;9945;46.010;8.946;2023-04-15T01:55:02;96000.81;;;12.67;31.01
19596;BME280;9945;46.010;8.946;2023-04-15T01:57:28;96008.63;;;12.60;33.10
19596;BME280;9945;46.010;8.946;2023-04-15T01:59:57;96004.44;;;12.66;33.37
19596;BME280;9945;46.010;8.946;2023-04-15T02:02:24;96009.31;;;12.69;33.49
19596;BME280;9945;46.010;8.946;2023-04-15T02:04:51;96012.38;;;12.72;33.22
19596;BME280;9945;46.010;8.946;2023-04-15T02:07:18;96011.38;;;12.73;33.57
19596;BME280;9945;46.010;8.946;2023-04-15T02:09:45;96011.94;;;12.69;33.65
19596;BME280;9945;46.010;8.946;2023-04-15T02:12:12;96013.81;;;12.75;33.49
19596;BME280;9945;46.010;8.946;2023-04-15T02:14:38;96004.25;;;12.67;33.14
19596;BME280;9945;46.010;8.946;2023-04-15T02:17:07;96011.34;;;12.67;33.36
19596;BME280;9945;46.010;8.946;2023-04-15T02:19:34;96009.31;;;12.69;33.24
19596;BME280;9945;46.010;8.946;2023-04-15T02:22:00;96013.50;;;12.63;35.21
19596;BME280;9945;46.010;8.946;2023-04-15T02:24:29;96010.06;;;12.63;35.18
19596;BME280;9945;46.010;8.946;2023-04-15T02:26:56;96014.09;;;12.59;34.62
19596;BME280;9945;46.010;8.946;2023-04-15T02:29:23;96010.22;;;12.55;33.42
19596;BME280;9945;46.010;8.946;2023-04-15T02:31:49;96010.34;;;12.46;33.63
19596;BME280;9945;46.010;8.946;2023-04-15T02:34:18;96014.78;;;12.46;33.48
19596;BME280;9945;46.010;8.946;2023-04-15T02:36:44;95999.66;;;12.48;34.89
19596;BME280;9945;46.010;8.946;2023-04-15T02:39:13;96002.28;;;12.48;35.05
19596;BME280;9945;46.010;8.946;2023-04-15T02:41:41;96003.78;;;12.57;34.49
19596;BME280;9945;46.010;8.946;2023-04-15T02:44:12;95997.41;;;12.45;35.10
19596;BME280;9945;46.010;8.946;2023-04-15T02:46:38;96006.28;;;12.44;34.02
19596;BME280;9945;46.010;8.946;2023-04-15T02:49:06;95998.84;;;12.26;34.29
19596;BME280;9945;46.010;8.946;2023-04-15T02:51:34;96007.72;;;12.25;34.73
19596;BME280;9945;46.010;8.946;2023-04-15T02:54:01;96002.09;;;12.28;34.90
19596;BME280;9945;46.010;8.946;2023-04-15T02:56:28;96001.69;;;12.25;33.56
19596;BME280;9945;46.010;8.946;2023-04-15T02:58:56;95994.38;;;12.20;34.52
19596;BME280;9945;46.010;8.946;2023-04-15T03:01:22;96004.06;;;12.20;34.76
19596;BME280;9945;46.010;8.946;2023-04-15T03:03:50;96009.56;;;12.25;34.88
19596;BME280;9945;46.010;8.946;2023-04-15T03:06:17;96014.91;;;12.17;33.93
19596;BME280;9945;46.010;8.946;2023-04-15T03:08:45;96008.31;;;12.21;33.02
19596;BME280;9945;46.010;8.946;2023-04-15T03:11:13;96017.16;;;12.20;33.07
19596;BME280;9945;46.010;8.946;2023-04-15T03:13:40;96014.03;;;12.09;33.33
19596;BME280;9945;46.010;8.946;2023-04-15T03:16:07;96016.78;;;12.01;34.40
19596;BME280;9945;46.010;8.946;2023-04-15T03:18:34;96020.41;;;12.00;34.87
19596;BME280;9945;46.010;8.946;2023-04-15T03:21:01;96022.09;;;11.87;34.75
19596;BME280;9945;46.010;8.946;2023-04-15T03:23:30;96020.63;;;11.84;35.41
19596;BME280;9945;46.010;8.946;2023-04-15T03:26:00;96034.84;;;11.90;33.81
19596;BME280;9945;46.010;8.946;2023-04-15T03:28:27;96028.31;;;11.86;35.44
19596;BME280;9945;46.010;8.946;2023-04-15T03:30:54;96026.63;;;11.78;34.91
19596;BME280;9945;46.010;8.946;2023-04-15T03:33:21;96020.75;;;11.76;34.19
19596;BME280;9945;46.010;8.946;2023-04-15T03:35:49;96024.00;;;11.78;34.73
19596;BME280;9945;46.010;8.946;2023-04-15T03:38:17;96015.66;;;11.89;34.81
19596;BME280;9945;46.010;8.946;2023-04-15T03:40:45;96018.19;;;11.83;34.52
19596;BME280;9945;46.010;8.946;2023-04-15T03:43:13;96022.19;;;11.79;34.44
19596;BME280;9945;46.010;8.946;2023-04-15T03:45:41;96013.84;;;11.90;35.69
19596;BME280;9945;46.010;8.946;2023-04-15T03:48:08;96013.03;;;11.89;35.44
19596;BME280;9945;46.010;8.946;2023-04-15T03:50:35;96014.28;;;11.93;34.82
19596;BME280;9945;46.010;8.946;2023-04-15T03:53:01;96021.56;;;11.77;35.74
19596;BME280;9945;46.010;8.946;2023-04-15T03:55:28;96030.19;;;11.92;35.77
19596;BME280;9945;46.010;8.946;2023-04-15T03:57:55;96027.56;;;12.06;34.96
19596;BME280;9945;46.010;8.946;2023-04-15T04:00:23;96021.59;;;11.98;35.19
19596;BME280;9945;46.010;8.946;2023-04-15T04:02:50;96018.34;;;11.96;36.39
19596;BME280;9945;46.010;8.946;2023-04-15T04:05:17;96019.53;;;11.93;35.66
19596;BME280;9945;46.010;8.946;2023-04-15T04:07:44;96027.28;;;12.01;36.38
19596;BME280;9945;46.010;8.946;2023-04-15T04:10:11;96023.94;;;12.07;36.03
19596;BME280;9945;46.010;8.946;2023-04-15T04:12:37;96027.16;;;11.88;35.83
19596;BME280;9945;46.010;8.946;2023-04-15T04:15:05;96024.41;;;11.96;35.45
19596;BME280;9945;46.010;8.946;2023-04-15T04:17:33;96032.28;;;11.96;36.12
19596;BME280;9945;46.010;8.946;2023-04-15T04:20:01;96026.59;;;11.93;35.59
19596;BME280;9945;46.010;8.946;2023-04-15T04:22:28;96035.41;;;12.06;35.80
19596;BME280;9945;46.010;8.946;2023-04-15T04:24:55;96032.91;;;11.98;36.58
19596;BME280;9945;46.010;8.946;2023-04-15T04:27:23;96042.66;;;12.04;36.41
19596;BME280;9945;46.010;8.946;2023-04-15T04:29:50;96042.66;;;12.04;36.05
19596;BME280;9945;46.010;8.946;2023-04-15T04:32:17;96047.28;;;12.02;36.64
19596;BME280;9945;46.010;8.946;2023-04-15T04:34:45;96043.47;;;12.05;37.04
19596;BME280;9945;46.010;8.946;2023-04-15T04:37:12;96047.28;;;12.02;37.58
19596;BME280;9945;46.010;8.946;2023-04-15T04:39:39;96040.66;;;12.06;37.29
19596;BME280;9945;46.010;8.946;2023-04-15T04:42:06;96046.09;;;12.05;36.79
19596;BME280;9945;46.010;8.946;2023-04-15T04:44:33;96042.28;;;12.07;36.05
19596;BME280;9945;46.010;8.946;2023-04-15T04:47:00;96051.22;;;12.13;36.94
19596;BME280;9945;46.010;8.946;2023-04-15T04:49:26;96051.22;;;12.13;35.94
19596;BME280;9945;46.010;8.946;2023-04-15T04:51:55;96058.53;;;12.18;37.08
19596;BME280;9945;46.010;8.946;2023-04-15T04:54:22;96049.78;;;12.10;36.76
19596;BME280;9945;46.010;8.946;2023-04-15T04:56:49;96052.47;;;12.17;37.13
19596;BME280;9945;46.010;8.946;2023-04-15T04:59:16;96056.47;;;12.13;36.39
19596;BME280;9945;46.010;8.946;2023-04-15T05:01:43;96061.47;;;12.29;35.92
19596;BME280;9945;46.010;8.946;2023-04-15T05:04:10;96062.94;;;12.32;37.46
19596;BME280;9945;46.010;8.946;2023-04-15T05:06:36;96066.66;;;12.44;36.08
19596;BME280;9945;46.010;8.946;2023-04-15T05:09:05;96066.28;;;12.26;37.44
19596;BME280;9945;46.010;8.946;2023-04-15T05:11:32;96068.28;;;12.24;37.76
19596;BME280;9945;46.010;8.946;2023-04-15T05:13:59;96072.59;;;12.31;36.49
19596;BME280;9945;46.010;8.946;2023-04-15T05:16:26;96083.47;;;12.28;37.01
19596;BME280;9945;46.010;8.946;2023-04-15T05:18:53;96082.72;;;12.13;37.69
19596;BME280;9945;46.010;8.946;2023-04-15T05:21:20;96078.63;;;12.10;36.66
19596;BME280;9945;46.010;8.946;2023-04-15T05:23:47;96081.38;;;12.02;38.35
19596;BME280;9945;46.010;8.946;2023-04-15T05:26:15;96079.63;;;12.09;36.62
19596;BME280;9945;46.010;8.946;2023-04-15T05:28:43;96077.75;;;12.03;36.78
19596;BME280;9945;46.010;8.946;2023-04-15T05:31:09;96087.97;;;12.13;36.56
19596;BME280;9945;46.010;8.946;2023-04-15T05:33:36;96084.16;;;12.16;36.68
19596;BME280;9945;46.010;8.946;2023-04-15T05:36:04;96086.22;;;12.20;37.47
19596;BME280;9945;46.010;8.946;2023-04-15T05:38:31;96087.38;;;12.18;38.15
19596;BME280;9945;46.010;8.946;2023-04-15T05:40:57;96085.47;;;12.26;37.92
19596;BME280;9945;46.010;8.946;2023-04-15T05:43:26;96087.47;;;12.24;36.97
19596;BME280;9945;46.010;8.946;2023-04-15T05:45:53;96093.09;;;12.21;37.69
19596;BME280;9945;46.010;8.946;2023-04-15T05:48:20;96096.63;;;12.49;37.24
19596;BME280;9945;46.010;8.946;2023-04-15T05:50:47;96099.94;;;12.58;37.27
19596;BME280;9945;46.010;8.946;2023-04-15T05:53:13;96102.91;;;12.55;35.18
19596;BME280;9945;46.010;8.946;2023-04-15T05:55:40;96099.53;;;12.61;35.36
19596;BME280;9945;46.010;8.946;2023-04-15T05:58:07;96104.16;;;12.59;34.86
19596;BME280;9945;46.010;8.946;2023-04-15T06:00:36;96099.81;;;12.66;36.42
19596;BME280;9945;46.010;8.946;2023-04-15T06:03:03;96109.19;;;12.75;35.26
19596;BME280;9945;46.010;8.946;2023-04-15T06:05:30;96107.59;;;12.81;37.02
19596;BME280;9945;46.010;8.946;2023-04-15T06:07:57;96104.03;;;12.88;35.59
19596;BME280;9945;46.010;8.946;2023-04-15T06:10:24;96102.50;;;13.01;36.36
19596;BME280;9945;46.010;8.946;2023-04-15T06:12:51;96099.06;;;13.00;36.47
19596;BME280;9945;46.010;8.946;2023-04-15T06:15:18;96110.44;;;13.07;36.36
19596;BME280;9945;46.010;8.946;2023-04-15T06:17:47;96105.81;;;13.09;35.43
19596;BME280;9945;46.010;8.946;2023-04-15T06:20:14;96110.59;;;13.27;35.81
19596;BME280;9945;46.010;8.946;2023-04-15T06:22:40;96103.13;;;13.24;35.86
19596;BME280;9945;46.010;8.946;2023-04-15T06:25:08;96103.59;;;13.34;36.03
19596;BME280;9945;46.010;8.946;2023-04-15T06:27:35;96112.59;;;13.53;36.32
19596;BME280;9945;46.010;8.946;2023-04-15T06:30:02;96117.81;;;13.46;36.67
19596;BME280;9945;46.010;8.946;2023-04-15T06:32:29;96121.88;;;13.49;35.75
19596;BME280;9945;46.010;8.946;2023-04-15T06:34:57;96125.50;;;13.48;35.25
19596;BME280;9945;46.010;8.946;2023-04-15T06:37:24;96118.25;;;13.50;36.56
19596;BME280;9945;46.010;8.946;2023-04-15T06:39:51;96125.03;;;13.38;36.37
19596;BME280;9945;46.010;8.946;2023-04-15T06:42:18;96129.06;;;13.34;35.32
19596;BME280;9945;46.010;8.946;2023-04-15T06:44:45;96125.06;;;13.44;35.83
19596;BME280;9945;46.010;8.946;2023-04-15T06:47:12;96128.72;;;13.43;37.67
19596;BME280;9945;46.010;8.946;2023-04-15T06:49:39;96125.63;;;13.68;36.73
19596;BME280;9945;46.010;8.946;2023-04-15T06:52:09;96134.84;;;13.85;36.93
19596;BME280;9945;46.010;8.946;2023-04-15T06:54:37;96129.84;;;14.03;36.07
19596;BME280;9945;46.010;8.946;2023-04-15T06:57:04;96124.66;;;14.23;35.22
19596;BME280;9945;46.010;8.946;2023-04-15T06:59:31;96123.94;;;14.49;34.48
19596;BME280;9945;46.010;8.946;2023-04-15T07:01:58;96126.44;;;14.90;34.97
19596;BME280;9945;46.010;8.946;2023-04-15T07:04:25;96127.25;;;15.36;33.87
19596;BME280;9945;46.010;8.946;2023-04-15T07:06:52;96120.53;;;15.73;33.64
19596;BME280;9945;46.010;8.946;2023-04-15T07:09:21;96123.16;;;15.80;32.93
19596;BME280;9945;46.010;8.946;2023-04-15T07:11:48;96116.41;;;15.84;32.54
19596;BME280;9945;46.010;8.946;2023-04-15T07:14:16;96117.44;;;15.89;31.47
19596;BME280;9945;46.010;8.946;2023-04-15T07:16:43;96111.34;;;15.82;32.89
19596;BME280;9945;46.010;8.946;2023-04-15T07:19:10;96113.78;;;15.91;32.77
19596;BME280;9945;46.010;8.946;2023-04-15T07:21:37;96109.41;;;16.16;33.58
19596;BME280;9945;46.010;8.946;2023-04-15T07:24:04;96106.69;;;16.29;32.53
19596;BME280;9945;46.010;8.946;2023-04-15T07:26:32;96105.34;;;16.13;31.96
19596;BME280;9945;46.010;8.946;2023-04-15T07:28:59;96102.69;;;16.20;32.31
19596;BME280;9945;46.010;8.946;2023-04-15T07:31:26;96108.06;;;16.38;32.69
19596;BME280;9945;46.010;8.946;2023-04-15T07:33:53;96108.38;;;16.55;30.78
19596;BME280;9945;46.010;8.946;2023-04-15T07:36:20;96115.88;;;16.96;30.33
19596;BME280;9945;46.010;8.946;2023-04-15T07:38:47;96115.53;;;17.11;29.99
19596;BME280;9945;46.010;8.946;2023-04-15T07:41:13;96113.88;;;17.16;28.25
19596;BME280;9945;46.010;8.946;2023-04-15T07:43:42;96113.50;;;17.13;28.98
19596;BME280;9945;46.010;8.946;2023-04-15T07:46:09;96099.19;;;17.20;29.46
19596;BME280;9945;46.010;8.946;2023-04-15T07:48:36;96098.47;;;17.31;29.12
19596;BME280;9945;46.010;8.946;2023-04-15T07:51:03;96103.00;;;17.49;29.38
19596;BME280;9945;46.010;8.946;2023-04-15T07:53:30;96101.09;;;17.56;30.79
19596;BME280;9945;46.010;8.946;2023-04-15T07:55:58;96104.25;;;17.47;32.32
19596;BME280;9945;46.010;8.946;2023-04-15T07:58:25;96098.16;;;17.21;31.72
19596;BME280;9945;46.010;8.946;2023-04-15T08:00:53;96098.09;;;17.28;30.31
19596;BME280;9945;46.010;8.946;2023-04-15T08:03:20;96101.16;;;17.50;31.95
19596;BME280;9945;46.010;8.946;2023-04-15T08:05:48;96093.53;;;17.78;31.15
19596;BME280;9945;46.010;8.946;2023-04-15T08:08:14;96099.59;;;17.85;29.87
19596;BME280;9945;46.010;8.946;2023-04-15T08:10:41;96103.63;;;18.06;29.35
19596;BME280;9945;46.010;8.946;2023-04-15T08:13:08;96108.53;;;18.21;28.26
19596;BME280;9945;46.010;8.946;2023-04-15T08:15:35;96100.72;;;18.44;26.97
19596;BME280;9945;46.010;8.946;2023-04-15T08:18:03;96103.03;;;18.70;27.09
19596;BME280;9945;46.010;8.946;2023-04-15T08:20:30;96099.06;;;19.03;27.70
19596;BME280;9945;46.010;8.946;2023-04-15T08:22:57;96098.50;;;19.24;25.79
19596;BME280;9945;46.010;8.946;2023-04-15T08:25:24;96094.59;;;19.38;23.88
19596;BME280;9945;46.010;8.946;2023-04-15T08:27:54;96104.19;;;19.62;24.96
19596;BME280;9945;46.010;8.946;2023-04-15T08:30:21;96099.09;;;19.49;25.04
19596;BME280;9945;46.010;8.946;2023-04-15T08:32:50;96099.09;;;19.61;24.99
19596;BME280;9945;46.010;8.946;2023-04-15T08:35:18;96092.41;;;19.58;25.05
19596;BME280;9945;46.010;8.946;2023-04-15T08:37:45;96097.22;;;19.85;26.45
19596;BME280;9945;46.010;8.946;2023-04-15T08:40:12;96097.38;;;20.18;24.17
19596;BME280;9945;46.010;8.946;2023-04-15T08:42:42;96090.28;;;20.47;24.16
19596;BME280;9945;46.010;8.946;2023-04-15T08:45:10;96092.56;;;20.72;24.48
19596;BME280;9945;46.010;8.946;2023-04-15T08:47:37;96084.31;;;21.19;23.54
19596;BME280;9945;46.010;8.946;2023-04-15T08:50:08;96087.13;;;20.95;24.37
19596;BME280;9945;46.010;8.946;2023-04-15T08:52:37;96081.16;;;21.38;24.42
19596;BME280;9945;46.010;8.946;2023-04-15T08:55:05;96080.56;;;21.53;24.34
19596;BME280;9945;46.010;8.946;2023-04-15T08:57:34;96084.97;;;21.42;24.44
19596;BME280;9945;46.010;8.946;2023-04-15T09:00:03;96081.75;;;21.79;23.80
19596;BME280;9945;46.010;8.946;2023-04-15T09:02:31;96077.91;;;21.53;24.01
19596;BME280;9945;46.010;8.946;2023-04-15T09:04:58;96071.97;;;21.46;25.08
19596;BME280;9945;46.010;8.946;2023-04-15T09:07:25;96072.97;;;22.22;25.30
19596;BME280;9945;46.010;8.946;2023-04-15T09:09:53;96066.91;;;23.07;23.72
19596;BME280;9945;46.010;8.946;2023-04-15T09:12:20;96058.09;;;23.86;21.25
19596;BME280;9945;46.010;8.946;2023-04-15T09:14:47;96060.00;;;24.00;21.80
19596;BME280;9945;46.010;8.946;2023-04-15T09:17:18;96068.59;;;25.10;20.36
19596;BME280;9945;46.010;8.946;2023-04-15T09:19:45;96058.34;;;25.93;19.48
19596;BME280;9945;46.010;8.946;2023-04-15T09:22:12;96060.94;;;27.41;18.87
19596;BME280;9945;46.010;8.946;2023-04-15T09:24:39;96061.88;;;28.50;18.23
19596;BME280;9945;46.010;8.946;2023-04-15T09:27:09;96067.75;;;29.27;18.70
19596;BME280;9945;46.010;8.946;2023-04-15T09:29:36;96057.41;;;28.65;18.62
19596;BME280;9945;46.010;8.946;2023-04-15T09:32:10;96058.09;;;29.72;17.12
19596;BME280;9945;46.010;8.946;2023-04-15T09:34:37;96047.00;;;30.56;17.23
19596;BME280;9945;46.010;8.946;2023-04-15T09:37:04;96048.31;;;30.95;17.69
19596;BME280;9945;46.010;8.946;2023-04-15T09:39:46;96045.53;;;31.84;15.19
19596;BME280;9945;46.010;8.946;2023-04-15T09:42:15;96043.69;;;32.02;15.11
19596;BME280;9945;46.010;8.946;2023-04-15T09:44:48;96041.19;;;32.88;14.85
19596;BME280;9945;46.010;8.946;2023-04-15T09:47:26;96047.22;;;33.19;14.50
19596;BME280;9945;46.010;8.946;2023-04-15T09:49:57;96041.44;;;32.43;14.93
19596;BME280;9945;46.010;8.946;2023-04-15T09:52:24;96040.34;;;31.12;15.36
19596;BME280;9945;46.010;8.946;2023-04-15T09:54:53;96032.97;;;32.36;15.31
19596;BME280;9945;46.010;8.946;2023-04-15T09:57:22;96025.31;;;31.81;14.77
19596;BME280;9945;46.010;8.946;2023-04-15T09:59:49;96029.94;;;32.29;15.09
19596;BME280;9945;46.010;8.946;2023-04-15T10:02:17;96028.09;;;33.24;14.33
19596;BME280;9945;46.010;8.946;2023-04-15T10:04:47;96022.66;;;32.98;13.97
19596;BME280;9945;46.010;8.946;2023-04-15T10:07:14;96026.50;;;32.80;13.57
19596;BME280;9945;46.010;8.946;2023-04-15T10:09:43;96021.06;;;31.36;15.82
19596;BME280;9945;46.010;8.946;2023-04-15T10:12:11;96003.09;;;30.23;17.86
19596;BME280;9945;46.010;8.946;2023-04-15T10:14:40;96006.59;;;29.42;18.02
19596;BME280;9945;46.010;8.946;2023-04-15T10:17:10;96010.88;;;28.78;18.25
19596;BME280;9945;46.010;8.946;2023-04-15T10:19:37;96003.41;;;28.51;18.56
19596;BME280;9945;46.010;8.946;2023-04-15T10:22:05;96000.22;;;27.64;19.25
19596;BME280;9945;46.010;8.946;2023-04-15T10:24:32;96000.50;;;26.70;19.93
19596;BME280;9945;46.010;8.946;2023-04-15T10:26:59;95997.06;;;26.11;19.58
19596;BME280;9945;46.010;8.946;2023-04-15T10:29:26;95996.28;;;24.95;21.30
19596;BME280;9945;46.010;8.946;2023-04-15T10:31:55;95997.03;;;24.45;21.76
19596;BME280;9945;46.010;8.946;2023-04-15T10:34:23;95992.66;;;24.19;23.34
19596;BME280;9945;46.010;8.946;2023-04-15T10:36:50;95994.91;;;23.69;22.60
19596;BME280;9945;46.010;8.946;2023-04-15T10:39:44;95985.22;;;23.53;22.72
19596;BME280;9945;46.010;8.946;2023-04-15T10:42:12;95986.09;;;23.27;23.77
19596;BME280;9945;46.010;8.946;2023-04-15T10:44:42;95981.66;;;23.00;23.99
19596;BME280;9945;46.010;8.946;2023-04-15T10:47:12;95985.75;;;22.22;24.95
19596;BME280;9945;46.010;8.946;2023-04-15T10:49:44;95976.81;;;22.34;25.28
19596;BME280;9945;46.010;8.946;2023-04-15T10:52:11;95969.72;;;22.17;26.85
19596;BME280;9945;46.010;8.946;2023-04-15T10:54:39;95966.53;;;21.72;26.65
19596;BME280;9945;46.010;8.946;2023-04-15T10:57:08;95972.78;;;22.04;24.05
19596;BME280;9945;46.010;8.946;2023-04-15T11:00:01;95971.84;;;22.74;25.05
19596;BME280;9945;46.010;8.946;2023-04-15T11:02:46;95968.03;;;23.39;24.59
19596;BME280;9945;46.010;8.946;2023-04-15T11:05:14;95966.72;;;23.47;23.98
19596;BME280;9945;46.010;8.946;2023-04-15T11:07:49;95956.97;;;23.25;24.89
19596;BME280;9945;46.010;8.946;2023-04-15T11:10:50;95961.41;;;23.52;24.46
19596;BME280;9945;46.010;8.946;2023-04-15T11:13:24;95959.03;;;24.48;24.33
19596;BME280;9945;46.010;8.946;2023-04-15T11:15:57;95959.84;;;24.38;23.76
19596;BME280;9945;46.010;8.946;2023-04-15T11:18:32;95952.28;;;24.15;23.12
19596;BME280;9945;46.010;8.946;2023-04-15T11:21:01;95951.94;;;23.81;24.26
19596;BME280;9945;46.010;8.946;2023-04-15T11:23:34;95957.94;;;23.04;24.18
19596;BME280;9945;46.010;8.946;2023-04-15T11:26:03;95952.34;;;22.74;25.59
19596;BME280;9945;46.010;8.946;2023-04-15T11:28:33;95947.81;;;22.42;25.65
19596;BME280;9945;46.010;8.946;2023-04-15T11:31:09;95959.91;;;22.23;26.08
19596;BME280;9945;46.010;8.946;2023-04-15T11:33:43;95942.47;;;21.88;26.13
19596;BME280;9945;46.010;8.946;2023-04-15T11:36:11;95945.16;;;21.67;27.13
19596;BME280;9945;46.010;8.946;2023-04-15T11:38:41;95944.41;;;21.71;26.47
19596;BME280;9945;46.010;8.946;2023-04-15T11:41:09;95942.25;;;21.95;26.36
19596;BME280;9945;46.010;8.946;2023-04-15T11:43:37;95943.41;;;22.26;26.07
19596;BME280;9945;46.010;8.946;2023-04-15T11:46:03;95936.34;;;23.16;25.11
19596;BME280;9945;46.010;8.946;2023-04-15T11:48:32;95941.47;;;23.80;24.32
19596;BME280;9945;46.010;8.946;2023-04-15T11:51:01;95941.38;;;24.62;23.17
19596;BME280;9945;46.010;8.946;2023-04-15T11:53:37;95941.31;;;25.18;22.12
19596;BME280;9945;46.010;8.946;2023-04-15T11:56:07;95938.72;;;26.31;21.60
19596;BME280;9945;46.010;8.946;2023-04-15T11:58:35;95938.25;;;26.14;20.86
19596;BME280;9945;46.010;8.946;2023-04-15T12:01:04;95943.69;;;26.48;21.65
19596;BME280;9945;46.010;8.946;2023-04-15T12:03:37;95935.63;;;26.53;21.13
19596;BME280;9945;46.010;8.946;2023-04-15T12:06:08;95944.97;;;26.61;21.01
19596;BME280;9945;46.010;8.946;2023-04-15T12:11:32;95947.03;;;25.86;21.95
19596;BME280;9945;46.010;8.946;2023-04-15T12:14:04;95946.22;;;25.80;22.12
19596;BME280;9945;46.010;8.946;2023-04-15T12:16:33;95955.69;;;25.68;22.65
19596;BME280;9945;46.010;8.946;2023-04-15T12:19:06;95954.50;;;25.09;23.86
19596;BME280;9945;46.010;8.946;2023-04-15T12:21:36;95951.81;;;24.99;23.02
19596;BME280;9945;46.010;8.946;2023-04-15T12:24:05;95953.88;;;25.38;23.29
19596;BME280;9945;46.010;8.946;2023-04-15T12:26:34;95959.69;;;26.24;22.83
19596;BME280;9945;46.010;8.946;2023-04-15T12:29:03;95956.50;;;25.68;23.07
19596;BME280;9945;46.010;8.946;2023-04-15T12:31:31;95962.66;;;25.63;23.90
19596;BME280;9945;46.010;8.946;2023-04-15T12:33:58;95964.91;;;25.11;23.32
19596;BME280;9945;46.010;8.946;2023-04-15T12:36:26;95963.00;;;25.32;23.85
19596;BME280;9945;46.010;8.946;2023-04-15T12:38:56;95964.50;;;25.73;24.00
19596;BME280;9945;46.010;8.946;2023-04-15T12:41:23;95967.22;;;25.53;24.26
19596;BME280;9945;46.010;8.946;2023-04-15T12:43:50;95971.06;;;24.86;24.40
19596;BME280;9945;46.010;8.946;2023-04-15T12:46:17;95968.16;;;25.03;24.33
19596;BME280;9945;46.010;8.946;2023-04-15T12:48:44;95971.88;;;24.41;24.59
19596;BME280;9945;46.010;8.946;2023-04-15T12:51:12;95980.91;;;24.14;25.33
19596;BME280;9945;46.010;8.946;2023-04-15T12:53:39;95978.09;;;23.27;26.20
19596;BME280;9945;46.010;8.946;2023-04-15T12:56:07;95979.44;;;22.87;26.71
19596;BME280;9945;46.010;8.946;2023-04-15T12:58:34;95986.22;;;21.93;27.97
19596;BME280;9945;46.010;8.946;2023-04-15T13:01:01;95986.78;;;21.73;28.81
19596;BME280;9945;46.010;8.946;2023-04-15T13:03:28;95982.47;;;21.28;29.10
19596;BME280;9945;46.010;8.946;2023-04-15T13:05:55;95992.91;;;20.80;30.77
19596;BME280;9945;46.010;8.946;2023-04-15T13:08:22;96000.16;;;20.67;30.71
19596;BME280;9945;46.010;8.946;2023-04-15T13:10:49;96007.88;;;20.35;29.85
19596;BME280;9945;46.010;8.946;2023-04-15T13:13:18;96012.50;;;20.28;30.33
19596;BME280;9945;46.010;8.946;2023-04-15T13:15:44;96014.88;;;20.13;29.98
19596;BME280;9945;46.010;8.946;2023-04-15T13:18:11;96025.22;;;20.26;30.00